Terminal Aerodrome Forecast
Issued by NWS

Home | Current Version | Previous Version | Text Only | Print | Product List | Glossary On
Versions: 1 2 3 4 5 6 7 8 9 10 11 12 13 14 15 16 17 18 19 20 21 22 23 24 25 26 27 28 29 30
000
FTUS45 KPSR 252300 CCA
TAFIWA
TAF COR
KIWA 252346Z 2600/2624 29008KT P6SM VCTS SCT080CB SCT250
     FM260015 18020G30KT 1/2SM BLDU SCT100 OVC250
     FM260100 14015KT 6SM HZ SCT080 BKN120 OVC250
     FM260800 14006KT P6SM BKN120 BKN250
     FM261900 21005KT P6SM SCT120 SCT250
      AMD LTD TO CLD VIS AND WIND 2603/2613=

USA.gov is the U.S. government's official web portal to all federal, state and local government web resources and services.